createdAt,value
2023-02-15T00:00:18.594Z,23.92
2023-02-15T00:02:46.910Z,23.92
2023-02-15T00:05:15.265Z,23.93
2023-02-15T00:07:43.580Z,23.94
2023-02-15T00:10:13.934Z,23.95
2023-02-15T00:12:42.289Z,23.96
2023-02-15T00:15:10.823Z,23.99
2023-02-15T00:17:39.114Z,24.00
2023-02-15T00:20:08.226Z,24.01
2023-02-15T00:22:36.510Z,24.04
2023-02-15T00:25:05.802Z,24.07
2023-02-15T00:27:36.261Z,24.10
2023-02-15T00:30:04.723Z,24.12
2023-02-15T00:32:33.368Z,24.11
2023-02-15T00:35:01.650Z,24.12
2023-02-15T00:37:30.004Z,24.13
2023-02-15T00:39:58.300Z,24.12
2023-02-15T00:42:26.684Z,24.12
2023-02-15T00:44:55.076Z,24.13
2023-02-15T00:47:23.407Z,24.13
2023-02-15T00:49:51.698Z,24.15
2023-02-15T00:52:20.160Z,24.15
2023-02-15T00:54:48.514Z,24.17
2023-02-15T00:57:16.847Z,24.19
2023-02-15T00:59:45.130Z,24.22
2023-02-15T01:02:13.468Z,24.26
2023-02-15T01:07:10.295Z,24.33
2023-02-15T01:09:38.560Z,24.36
2023-02-15T01:12:07.045Z,24.40
2023-02-15T01:14:35.330Z,24.44
2023-02-15T01:17:03.656Z,24.48
2023-02-15T01:19:32.016Z,24.51
2023-02-15T01:22:00.325Z,24.55
2023-02-15T01:24:28.620Z,24.57
2023-02-15T01:26:56.924Z,24.60
2023-02-15T01:29:25.214Z,24.59
2023-02-15T01:31:53.609Z,24.62
2023-02-15T01:34:21.958Z,24.63
2023-02-15T01:36:50.329Z,24.64
2023-02-15T01:39:18.640Z,24.69
2023-02-15T01:41:46.985Z,24.68
2023-02-15T01:44:49.063Z,24.74
2023-02-15T01:50:11.241Z,24.84
2023-02-15T01:52:47.165Z,24.86
2023-02-15T01:55:16.749Z,24.89
2023-02-15T01:57:48.110Z,24.91
2023-02-15T02:00:18.994Z,24.95
2023-02-15T02:02:51.252Z,24.99
2023-02-15T02:05:19.887Z,25.04
2023-02-15T02:07:51.000Z,25.08
2023-02-15T02:10:22.672Z,25.14
2023-02-15T02:12:53.926Z,25.17
2023-02-15T02:15:49.220Z,25.17
2023-02-15T02:18:44.515Z,25.20
2023-02-15T02:21:49.970Z,25.21
2023-02-15T02:25:00.768Z,25.19
2023-02-15T02:27:35.411Z,25.19
2023-02-15T02:30:24.898Z,25.17
2023-02-15T02:33:00.885Z,25.15
2023-02-15T02:35:41.515Z,25.16
2023-02-15T02:38:55.760Z,25.13
2023-02-15T02:41:42.481Z,25.13
2023-02-15T02:44:20.650Z,25.16
2023-02-15T02:46:52.954Z,25.18
2023-02-15T02:49:42.644Z,25.26
2023-02-15T02:52:41.817Z,25.33
2023-02-15T02:55:21.960Z,25.45
2023-02-15T02:57:58.355Z,25.54
2023-02-15T03:00:29.661Z,25.63
2023-02-15T03:03:16.805Z,25.69
2023-02-15T03:05:49.959Z,25.76
2023-02-15T03:08:23.802Z,25.78
2023-02-15T03:10:57.974Z,25.84
2023-02-15T03:13:26.921Z,25.90
2023-02-15T03:16:15.097Z,25.96
2023-02-15T03:18:59.762Z,26.02
2023-02-15T03:22:11.312Z,26.10
2023-02-15T03:25:04.294Z,26.14
2023-02-15T03:27:42.413Z,26.17
2023-02-15T03:30:13.067Z,26.22
2023-02-15T03:32:43.590Z,26.27
2023-02-15T03:35:12.643Z,26.33
2023-02-15T03:37:56.075Z,26.40
2023-02-15T03:41:13.961Z,26.48
2023-02-15T03:43:54.126Z,26.56
2023-02-15T03:46:25.181Z,26.64
2023-02-15T03:49:04.238Z,26.71
2023-02-15T03:51:38.481Z,26.80
2023-02-15T03:54:13.856Z,26.88
2023-02-15T03:57:04.192Z,26.97
2023-02-15T03:59:51.135Z,27.05
2023-02-15T04:02:33.413Z,27.12
2023-02-15T04:05:01.694Z,27.19
2023-02-15T04:07:29.960Z,27.28
2023-02-15T04:10:16.548Z,27.35
2023-02-15T04:12:44.819Z,27.46
2023-02-15T04:15:34.333Z,27.55
2023-02-15T04:18:05.337Z,27.62
2023-02-15T04:20:51.792Z,27.67
2023-02-15T04:23:38.561Z,27.73
2023-02-15T04:26:07.730Z,27.76
2023-02-15T04:28:36.057Z,27.80
2023-02-15T04:31:04.325Z,27.80
2023-02-15T04:33:32.917Z,27.82
2023-02-15T04:36:02.144Z,27.84
2023-02-15T04:38:30.593Z,27.81
2023-02-15T04:40:58.918Z,27.81
2023-02-15T04:43:27.199Z,27.78
2023-02-15T04:45:55.597Z,27.82
2023-02-15T04:48:24.002Z,27.88
2023-02-15T04:50:52.332Z,27.90
2023-02-15T04:53:20.697Z,27.93
2023-02-15T04:55:48.971Z,27.91
2023-02-15T04:58:17.277Z,27.91
2023-02-15T05:00:45.628Z,27.88
2023-02-15T05:03:13.955Z,27.85
2023-02-15T05:05:42.564Z,27.82
2023-02-15T05:08:10.860Z,27.80
2023-02-15T05:10:39.134Z,27.77
2023-02-15T05:13:07.459Z,27.75
2023-02-15T05:15:35.835Z,27.70
2023-02-15T05:18:04.129Z,27.61
2023-02-15T05:20:32.433Z,27.53
2023-02-15T05:23:00.745Z,27.45
2023-02-15T05:25:47.342Z,27.34
2023-02-15T05:28:21.522Z,27.23
2023-02-15T05:31:14.563Z,27.11
2023-02-15T05:33:43.184Z,27.06
2023-02-15T05:36:12.077Z,27.06
2023-02-15T05:38:41.393Z,27.10
2023-02-15T05:41:12.303Z,27.18
2023-02-15T05:43:41.613Z,27.25
2023-02-15T05:46:10.344Z,27.32
2023-02-15T05:48:38.794Z,27.35
2023-02-15T05:51:09.810Z,27.36
2023-02-15T05:53:41.060Z,27.37
2023-02-15T05:56:11.325Z,27.36
2023-02-15T05:58:41.853Z,27.34
2023-02-15T06:01:23.105Z,27.35
2023-02-15T06:03:51.954Z,27.33
2023-02-15T06:06:20.302Z,27.31
2023-02-15T06:08:48.588Z,27.29
2023-02-15T06:11:16.884Z,27.28
2023-02-15T06:13:45.176Z,27.28
2023-02-15T06:16:13.564Z,27.28
2023-02-15T06:18:41.934Z,27.33
2023-02-15T06:21:10.266Z,27.37
2023-02-15T06:23:38.643Z,27.44
2023-02-15T06:26:07.038Z,27.51
2023-02-15T06:28:35.469Z,27.58
2023-02-15T06:31:04.042Z,27.63
2023-02-15T06:33:38.045Z,27.70
2023-02-15T06:36:06.958Z,27.76
2023-02-15T06:38:35.393Z,27.81
2023-02-15T06:41:04.538Z,27.84
2023-02-15T06:43:32.923Z,27.84
2023-02-15T06:46:01.762Z,27.84
2023-02-15T06:48:30.293Z,27.85
2023-02-15T06:50:59.289Z,27.88
2023-02-15T06:53:27.615Z,27.88
2023-02-15T06:56:04.736Z,27.94
2023-02-15T06:58:33.039Z,27.97
2023-02-15T07:01:01.561Z,28.00
2023-02-15T07:03:29.997Z,28.02
2023-02-15T07:06:00.198Z,28.03
2023-02-15T07:08:29.923Z,28.08
2023-02-15T07:11:18.791Z,28.11
2023-02-15T07:13:47.868Z,28.18
2023-02-15T07:16:16.340Z,28.24
2023-02-15T07:18:44.726Z,28.27
2023-02-15T07:21:13.138Z,28.31
2023-02-15T07:23:42.622Z,28.36
2023-02-15T07:26:10.952Z,28.40
2023-02-15T07:28:39.436Z,28.42
2023-02-15T07:31:08.339Z,28.47
2023-02-15T07:33:37.130Z,28.48
2023-02-15T07:36:06.965Z,28.47
2023-02-15T07:38:37.789Z,28.45
2023-02-15T07:41:09.662Z,28.46
2023-02-15T07:43:41.005Z,28.48
2023-02-15T07:46:11.834Z,28.50
2023-02-15T07:48:41.496Z,28.54
2023-02-15T07:51:11.617Z,28.60
2023-02-15T07:53:41.761Z,28.64
2023-02-15T07:56:13.614Z,28.67
2023-02-15T07:58:53.963Z,28.71
2023-02-15T08:01:39.644Z,28.75
2023-02-15T08:04:09.675Z,28.75
2023-02-15T08:06:38.432Z,28.76
2023-02-15T08:09:08.960Z,28.80
2023-02-15T08:11:41.466Z,28.83
2023-02-15T08:14:12.696Z,28.92
2023-02-15T08:16:43.755Z,28.95
2023-02-15T08:19:18.055Z,28.99
2023-02-15T08:21:49.330Z,29.01
2023-02-15T08:24:20.437Z,29.02
2023-02-15T08:26:49.714Z,29.03
2023-02-15T08:29:20.210Z,29.06
2023-02-15T08:31:49.801Z,29.05
2023-02-15T08:34:20.459Z,29.05
2023-02-15T08:36:49.125Z,29.03
2023-02-15T08:39:17.980Z,29.04
2023-02-15T08:41:48.469Z,29.01
2023-02-15T08:44:18.997Z,28.99
2023-02-15T08:46:48.969Z,28.99
2023-02-15T08:49:24.445Z,29.00
2023-02-15T08:51:52.782Z,29.05
2023-02-15T08:54:23.755Z,29.06
2023-02-15T08:56:52.087Z,29.09
2023-02-15T08:59:25.081Z,29.12
2023-02-15T09:01:54.229Z,29.17
2023-02-15T09:04:24.453Z,29.22
2023-02-15T09:06:54.288Z,29.26
2023-02-15T09:09:23.431Z,29.32
2023-02-15T09:11:58.759Z,29.35
2023-02-15T09:14:28.780Z,29.37
2023-02-15T09:16:57.766Z,29.40
2023-02-15T09:19:26.473Z,29.41
2023-02-15T09:21:54.952Z,29.42
2023-02-15T09:24:23.600Z,29.40
2023-02-15T09:26:52.063Z,29.38
2023-02-15T09:29:21.493Z,29.36
2023-02-15T09:31:52.307Z,29.29
2023-02-15T09:34:23.497Z,29.22
2023-02-15T09:36:52.861Z,29.12
2023-02-15T09:39:25.588Z,29.05
2023-02-15T09:42:12.237Z,28.96
2023-02-15T09:44:55.692Z,28.86
2023-02-15T09:47:48.716Z,28.78
2023-02-15T09:50:36.638Z,28.74
2023-02-15T09:53:59.106Z,28.70
2023-02-15T09:56:50.068Z,28.67
2023-02-15T09:59:32.815Z,28.63
2023-02-15T10:02:04.290Z,28.60
2023-02-15T10:04:57.700Z,28.59
2023-02-15T10:07:47.340Z,28.56
2023-02-15T10:10:21.708Z,28.53
2023-02-15T10:13:47.356Z,28.50
2023-02-15T10:16:38.475Z,28.45
2023-02-15T10:19:18.754Z,28.42
2023-02-15T10:22:13.305Z,28.36
2023-02-15T10:24:53.830Z,28.32
2023-02-15T10:27:23.866Z,28.28
2023-02-15T10:30:38.362Z,28.23
2023-02-15T10:33:33.147Z,28.19
2023-02-15T10:36:43.585Z,28.14
2023-02-15T10:39:31.464Z,28.09
2023-02-15T10:42:21.531Z,28.02
2023-02-15T10:44:56.685Z,27.94
2023-02-15T10:47:27.566Z,27.89
2023-02-15T10:50:27.563Z,27.82
2023-02-15T10:53:12.847Z,27.75
2023-02-15T10:56:03.112Z,27.65
2023-02-15T10:58:50.558Z,27.56
2023-02-15T11:01:31.956Z,27.46
2023-02-15T11:04:19.313Z,27.38
2023-02-15T11:06:56.142Z,27.31
2023-02-15T11:09:30.040Z,27.26
2023-02-15T11:12:02.921Z,27.20
2023-02-15T11:14:46.850Z,27.14
2023-02-15T11:17:20.188Z,27.07
2023-02-15T11:20:21.064Z,27.00
2023-02-15T11:22:51.981Z,26.96
2023-02-15T11:25:26.402Z,26.90
2023-02-15T11:27:56.621Z,26.84
2023-02-15T11:30:30.106Z,26.79
2023-02-15T11:33:05.030Z,26.73
2023-02-15T11:35:52.651Z,26.67
2023-02-15T11:38:31.823Z,26.59
2023-02-15T11:41:08.466Z,26.51
2023-02-15T11:43:50.159Z,26.44
2023-02-15T11:46:18.601Z,26.37
2023-02-15T11:48:47.235Z,26.30
2023-02-15T11:51:20.516Z,26.24
2023-02-15T11:53:51.249Z,26.16
2023-02-15T11:56:23.724Z,26.11
2023-02-15T11:59:02.528Z,26.04
2023-02-15T12:01:46.597Z,25.98
2023-02-15T12:04:17.898Z,25.93
2023-02-15T12:06:51.702Z,25.87
2023-02-15T12:09:43.029Z,25.82
2023-02-15T12:12:32.427Z,25.76
2023-02-15T12:15:03.621Z,25.71
2023-02-15T12:17:52.510Z,25.67
2023-02-15T12:20:20.755Z,25.64
2023-02-15T12:22:56.605Z,25.62
2023-02-15T12:25:31.545Z,25.62
2023-02-15T12:28:00.260Z,25.61
2023-02-15T12:30:36.094Z,25.58
2023-02-15T12:33:27.671Z,25.54
2023-02-15T12:36:43.660Z,25.52
2023-02-15T12:39:14.988Z,25.47
2023-02-15T12:41:48.658Z,25.43
2023-02-15T12:44:22.677Z,25.40
2023-02-15T12:47:21.457Z,25.37
2023-02-15T12:50:12.134Z,25.34
2023-02-15T12:52:41.384Z,25.34
2023-02-15T12:55:32.692Z,25.32
2023-02-15T12:58:27.058Z,25.30
2023-02-15T13:01:14.021Z,25.28
2023-02-15T13:04:16.846Z,25.26
2023-02-15T13:06:51.767Z,25.23
2023-02-15T13:09:37.996Z,25.21
2023-02-15T13:12:28.323Z,25.17
2023-02-15T13:14:58.126Z,25.14
2023-02-15T13:17:36.428Z,25.09
2023-02-15T13:20:12.211Z,25.06
2023-02-15T13:22:45.434Z,25.03
2023-02-15T13:25:24.501Z,25.00
2023-02-15T13:28:04.648Z,24.97
2023-02-15T13:30:36.863Z,24.98
2023-02-15T13:33:09.506Z,25.00
2023-02-15T13:35:52.170Z,25.05
2023-02-15T13:38:39.089Z,25.09
2023-02-15T13:41:15.366Z,25.13
2023-02-15T13:44:19.060Z,25.14
2023-02-15T13:47:15.701Z,25.17
2023-02-15T13:50:13.302Z,25.19
2023-02-15T13:52:56.033Z,25.23
2023-02-15T13:55:56.456Z,25.24
2023-02-15T13:58:59.047Z,25.26
2023-02-15T14:01:53.768Z,25.26
2023-02-15T14:04:41.407Z,25.27
2023-02-15T14:07:28.263Z,25.27
2023-02-15T14:10:24.287Z,25.26
2023-02-15T14:13:30.013Z,25.25
2023-02-15T14:16:11.495Z,25.26
2023-02-15T14:18:45.633Z,25.24
2023-02-15T14:21:37.250Z,25.23
2023-02-15T14:24:23.356Z,25.22
2023-02-15T14:26:51.715Z,25.20
2023-02-15T14:29:48.730Z,25.18
2023-02-15T14:32:37.492Z,25.17
2023-02-15T14:35:08.174Z,25.15
2023-02-15T14:38:20.266Z,25.15
2023-02-15T14:41:03.215Z,25.13
2023-02-15T14:43:47.124Z,25.11
2023-02-15T14:46:29.807Z,25.10
2023-02-15T14:49:05.871Z,25.07
2023-02-15T14:51:47.419Z,25.07
2023-02-15T14:54:19.014Z,25.03
2023-02-15T14:56:48.606Z,25.03
2023-02-15T14:59:26.023Z,25.01
2023-02-15T15:02:05.901Z,24.98
2023-02-15T15:04:39.631Z,24.94
2023-02-15T15:07:16.812Z,24.92
2023-02-15T15:09:48.764Z,24.90
2023-02-15T15:12:26.388Z,24.88
2023-02-15T15:14:56.686Z,24.84
2023-02-15T15:17:34.446Z,24.83
2023-02-15T15:20:05.940Z,24.80
2023-02-15T15:22:35.731Z,24.77
2023-02-15T15:25:34.710Z,24.74
2023-02-15T15:28:04.701Z,24.71
2023-02-15T15:30:33.045Z,24.70
2023-02-15T15:33:15.948Z,24.69
2023-02-15T15:36:21.349Z,24.64
2023-02-15T15:39:08.269Z,24.62
2023-02-15T15:41:44.426Z,24.59
2023-02-15T15:44:45.910Z,24.56
2023-02-15T15:47:51.352Z,24.51
2023-02-15T15:50:22.891Z,24.50
2023-02-15T15:52:57.635Z,24.47
2023-02-15T15:55:29.734Z,24.44
2023-02-15T15:58:10.117Z,24.42
2023-02-15T16:00:53.742Z,24.40
2023-02-15T16:03:27.742Z,24.36
2023-02-15T16:05:57.436Z,24.34
2023-02-15T16:08:35.106Z,24.32
2023-02-15T16:13:38.781Z,24.26
2023-02-15T16:16:08.117Z,24.23
2023-02-15T16:18:46.397Z,24.20
2023-02-15T16:21:30.930Z,24.18
2023-02-15T16:24:10.293Z,24.15
2023-02-15T16:27:12.666Z,24.12
2023-02-15T16:29:40.982Z,24.10
2023-02-15T16:32:26.797Z,24.08
2023-02-15T16:34:59.769Z,24.04
2023-02-15T16:37:30.442Z,24.01
2023-02-15T16:39:58.956Z,23.98
2023-02-15T16:42:27.807Z,23.96
2023-02-15T16:45:08.214Z,23.92
2023-02-15T16:47:42.935Z,23.90
2023-02-15T16:50:21.795Z,23.86
2023-02-15T16:52:50.438Z,23.85
2023-02-15T16:55:27.444Z,23.83
2023-02-15T16:58:04.606Z,23.80
2023-02-15T17:00:38.590Z,23.77
2023-02-15T17:03:15.647Z,23.74
2023-02-15T17:05:46.914Z,23.72
2023-02-15T17:08:31.513Z,23.67
2023-02-15T17:11:23.911Z,23.65
2023-02-15T17:14:16.476Z,23.62
2023-02-15T17:16:51.670Z,23.59
2023-02-15T17:19:51.808Z,23.56
2023-02-15T17:22:24.831Z,23.54
2023-02-15T17:25:02.012Z,23.48
2023-02-15T17:27:34.948Z,23.46
2023-02-15T17:30:24.766Z,23.44
2023-02-15T17:32:59.639Z,23.39
2023-02-15T17:35:35.306Z,23.35
2023-02-15T17:38:17.063Z,23.32
2023-02-15T17:40:45.385Z,23.28
2023-02-15T17:43:13.726Z,23.25
2023-02-15T17:45:49.067Z,23.19
2023-02-15T17:48:35.698Z,23.16
2023-02-15T17:51:07.074Z,23.12
2023-02-15T17:53:35.584Z,23.08
2023-02-15T17:56:11.341Z,23.05
2023-02-15T17:58:42.150Z,22.99
2023-02-15T18:01:37.785Z,22.94
2023-02-15T18:04:24.851Z,22.92
2023-02-15T18:07:11.456Z,22.88
2023-02-15T18:09:57.977Z,22.84
2023-02-15T18:12:31.811Z,22.80
2023-02-15T18:15:01.598Z,22.77
2023-02-15T18:17:36.970Z,22.74
2023-02-15T18:20:19.006Z,22.75
2023-02-15T18:22:48.149Z,22.72
2023-02-15T18:25:19.736Z,22.69
2023-02-15T18:27:48.356Z,22.66
2023-02-15T18:30:22.512Z,22.63
2023-02-15T18:32:54.032Z,22.61
2023-02-15T18:35:25.606Z,22.58
2023-02-15T18:37:55.571Z,22.55
2023-02-15T18:40:26.641Z,22.54
2023-02-15T18:42:57.779Z,22.51
2023-02-15T18:45:33.767Z,22.49
2023-02-15T18:48:02.636Z,22.46
2023-02-15T18:50:35.415Z,22.45
2023-02-15T18:53:12.998Z,22.42
2023-02-15T18:55:41.382Z,22.40
2023-02-15T18:58:19.258Z,22.36
2023-02-15T19:00:48.056Z,22.35
2023-02-15T19:03:19.875Z,22.31
2023-02-15T19:05:49.296Z,22.30
2023-02-15T19:08:25.432Z,22.27
2023-02-15T19:10:54.023Z,22.24
2023-02-15T19:13:22.326Z,22.22
2023-02-15T19:15:50.626Z,22.18
2023-02-15T19:18:20.157Z,22.18
2023-02-15T19:20:49.474Z,22.15
2023-02-15T19:23:24.168Z,22.12
2023-02-15T19:25:55.026Z,22.11
2023-02-15T19:28:34.457Z,22.08
2023-02-15T19:31:02.929Z,22.07
2023-02-15T19:33:31.457Z,22.03
2023-02-15T19:35:59.967Z,22.01
2023-02-15T19:38:32.173Z,22.01
2023-02-15T19:41:08.890Z,21.98
2023-02-15T19:43:37.510Z,21.97
2023-02-15T19:46:06.458Z,21.95
2023-02-15T19:48:34.920Z,21.94
2023-02-15T19:51:04.603Z,21.92
2023-02-15T19:53:32.971Z,21.89
2023-02-15T19:56:02.125Z,21.87
2023-02-15T19:58:30.908Z,21.86
2023-02-15T20:00:59.249Z,21.84
2023-02-15T20:03:27.579Z,21.82
2023-02-15T20:05:55.969Z,21.80
2023-02-15T20:08:24.687Z,21.77
2023-02-15T20:10:53.013Z,21.76
2023-02-15T20:13:22.099Z,21.73
2023-02-15T20:15:51.785Z,21.71
2023-02-15T20:18:22.390Z,21.70
2023-02-15T20:20:56.260Z,21.68
2023-02-15T20:23:28.982Z,21.69
2023-02-15T20:26:13.785Z,21.67
2023-02-15T20:28:42.098Z,21.65
2023-02-15T20:31:17.504Z,21.63
2023-02-15T20:33:45.866Z,21.59
2023-02-15T20:36:17.046Z,21.59
2023-02-15T20:38:46.590Z,21.57
2023-02-15T20:41:38.446Z,21.56
2023-02-15T20:44:26.485Z,21.54
2023-02-15T20:46:57.659Z,21.53
2023-02-15T20:49:28.029Z,21.52
2023-02-15T20:51:57.926Z,21.49
2023-02-15T20:54:30.165Z,21.49
2023-02-15T20:56:58.521Z,21.50
2023-02-15T20:59:35.873Z,21.50
2023-02-15T21:02:21.088Z,21.49
2023-02-15T21:04:49.485Z,21.49
2023-02-15T21:07:19.569Z,21.48
2023-02-15T21:09:48.028Z,21.47
2023-02-15T21:12:19.528Z,21.46
2023-02-15T21:14:48.510Z,21.43
2023-02-15T21:17:18.376Z,21.42
2023-02-15T21:19:47.165Z,21.39
2023-02-15T21:22:16.796Z,21.38
2023-02-15T21:24:54.566Z,21.36
2023-02-15T21:27:23.278Z,21.35
2023-02-15T21:29:51.760Z,21.33
2023-02-15T21:32:20.166Z,21.33
2023-02-15T21:34:48.518Z,21.32
2023-02-15T21:37:32.792Z,21.31
2023-02-15T21:40:01.330Z,21.28
2023-02-15T21:42:48.406Z,21.26
2023-02-15T21:45:44.684Z,21.25
2023-02-15T21:48:12.998Z,21.24
2023-02-15T21:51:00.892Z,21.23
2023-02-15T21:53:46.836Z,21.22
2023-02-15T21:56:21.020Z,21.22
2023-02-15T21:58:49.959Z,21.23
2023-02-15T22:01:24.431Z,21.23
2023-02-15T22:03:54.977Z,21.23
2023-02-15T22:06:23.671Z,21.23
2023-02-15T22:08:52.003Z,21.26
2023-02-15T22:11:23.536Z,21.27
2023-02-15T22:13:52.729Z,21.27
2023-02-15T22:16:23.870Z,21.28
2023-02-15T22:18:52.218Z,21.29
2023-02-15T22:21:21.754Z,21.28
2023-02-15T22:23:50.046Z,21.28
2023-02-15T22:26:26.285Z,21.28
2023-02-15T22:28:54.824Z,21.28
2023-02-15T22:31:24.574Z,21.29
2023-02-15T22:33:53.199Z,21.28
2023-02-15T22:36:30.289Z,21.27
2023-02-15T22:38:59.375Z,21.27
2023-02-15T22:41:31.557Z,21.26
2023-02-15T22:44:00.305Z,21.24
2023-02-15T22:46:28.687Z,21.25
2023-02-15T22:48:57.037Z,21.25
2023-02-15T22:51:26.249Z,21.23
2023-02-15T22:53:54.870Z,21.22
2023-02-15T22:56:29.020Z,21.21
2023-02-15T22:59:03.305Z,21.19
2023-02-15T23:01:34.409Z,21.18
2023-02-15T23:04:04.134Z,21.17
2023-02-15T23:06:35.132Z,21.17
2023-02-15T23:09:03.583Z,21.17
2023-02-15T23:11:31.919Z,21.16
2023-02-15T23:14:00.225Z,21.15
2023-02-15T23:16:28.552Z,21.15
2023-02-15T23:18:57.238Z,21.16
2023-02-15T23:21:32.411Z,21.14
2023-02-15T23:24:22.982Z,21.13
2023-02-15T23:26:51.907Z,21.12
2023-02-15T23:29:23.652Z,21.12
2023-02-15T23:31:54.773Z,21.14
2023-02-15T23:34:29.557Z,21.15
2023-02-15T23:36:58.845Z,21.16
2023-02-15T23:39:47.933Z,21.16
2023-02-15T23:42:20.458Z,21.18
2023-02-15T23:44:50.062Z,21.20
2023-02-15T23:47:49.249Z,21.21
2023-02-15T23:50:26.152Z,21.22
2023-02-15T23:52:55.928Z,21.24
2023-02-15T23:55:29.775Z,21.25
2023-02-15T23:57:58.109Z,21.26
